Portada
METAR-TAF:

METAR-TAF

Aeroports :

Sukkur, Pakistan

latitud: 27-43-19N, longitud: 068-47-31E, altitud: 60 m

Observació

L'informe es va fer fa 28 minuts, a les 19:00 UTC
Vent 10 kt del Nord-Est
Temperatura 20°C
Humitat 64%
Pressió
Visibilitat: 1011 m
calitja

METAR: OPSK 181900Z 05010KT 4000 HZ NSC 20/13 QNH 1011 NOSIG

Hora: 00:28 (19:28 UTC)

Pronòstic

L'informe es va fer fa 3 hores i 28 minuts, a les 16:00 UTC
Pronòstic vàlid del 18 a les 18 UTC al 19 a les 18 UTC
Vent 5 kt del Nord
Visibilitat: 3000 m
Núvols disperses a una alçada de 3000 ft
calitja
Temporalment
l' 19 a les 00 UTC al 19 a les 04 UTC
Vent 5 kt del Nord-Oest
Visibilitat: 1000 m
boirina
A partir de les UTC
Vent 8 kt del Sud-Oest
Visibilitat: 5000 m
calitja

TAF: OPSK 181600Z 1818/1918 36005KT 3000 HZ SCT030 TEMPO 1900/1904 32005KT 1000 BR NSC FM 190600Z 22008KT 5000 HZ NSC

Observacions i pronòstics meteorològics de més de 4000 aeroports (METAR i TAF).

Les estacions disponibles són els punts grocs i vermells al mapa.

Posi el ratolí al punt desitjat per veure el nom de l'estació.

Feu clic per veure les observacions i els pronòstics meteorològics.

Per canviar el mapa: feu clic els botons verds amb una creu de color negre per apropar; al botó verd amb un guió per allunyar la imatge; o en les fletxes verdes per a mapes adjacents.


METAR-TAF: